Portage County Information

FAA: POV - ICAO: KPOV

Portage County (Airport) Location

State Ohio
County Portage
City Ravenna
Portage County (Airport) is 3 miles north of Ravenna, OH.
Latitude 41-12-36.6559N
Longitude 081-15-05.8505W
Elevation 1,197ft

Portage County METARs

METAR KPOV 170415Z AUTO 00000KT 10SM CLR 09/06 A2983 RMK AO2 T00890058 PWINO
Altimeter 29.83"
Temperature 8.9°C (48.0°F)
Wind 0° at 0KT
Clouds Skies are clear.
Visibility 10.0mi
Time observed: 2022-05-17T04:15:00Z

Portage County (Airport) Details

Status Operational
Activation N/A
Ownership Public
Usage Public
Chart DETROIT
ATC on-site No
Beacon schedule sunset-sunrise
Beacon color clear green

Portage County (Airport) Contacts

Owner PORTAGE CO ARPT AUTH.
Owner address 8095 STATE ROUTE 44, RAVENNA, OH 44266
Owner phone 330-297-1478
Manager MARK RUNGE
Manager address ONE PROPELLER PLACE, PIQUA, OH 45356
Manager phone 937-778-4207

Portage County Radio Frequencies

Portage County (Airport) Radio Frequencies

UNICOM 123.05
Common traffic advisory frequency (CTAF) 123.05